sensor_id;sensor_type;location;lat;lon;timestamp;P1;durP1;ratioP1;P2;durP2;ratioP2
12603;SDS011;6367;52.508;13.284;2023-03-01T00:00:40;19.17;;;12.43;;
12603;SDS011;6367;52.508;13.284;2023-03-01T00:03:05;15.53;;;12.07;;
12603;SDS011;6367;52.508;13.284;2023-03-01T00:05:31;16.40;;;12.13;;
12603;SDS011;6367;52.508;13.284;2023-03-01T00:07:57;20.20;;;13.90;;
12603;SDS011;6367;52.508;13.284;2023-03-01T00:10:23;20.13;;;14.20;;
12603;SDS011;6367;52.508;13.284;2023-03-01T00:12:49;18.90;;;13.93;;
12603;SDS011;6367;52.508;13.284;2023-03-01T00:15:14;20.43;;;13.50;;
12603;SDS011;6367;52.508;13.284;2023-03-01T00:17:40;26.83;;;14.10;;
12603;SDS011;6367;52.508;13.284;2023-03-01T00:20:06;22.70;;;15.10;;
12603;SDS011;6367;52.508;13.284;2023-03-01T00:22:36;20.63;;;14.40;;
12603;SDS011;6367;52.508;13.284;2023-03-01T00:25:02;22.00;;;14.70;;
12603;SDS011;6367;52.508;13.284;2023-03-01T00:27:28;18.90;;;13.80;;
12603;SDS011;6367;52.508;13.284;2023-03-01T00:29:54;17.70;;;13.20;;
12603;SDS011;6367;52.508;13.284;2023-03-01T00:32:20;20.60;;;13.30;;
12603;SDS011;6367;52.508;13.284;2023-03-01T00:34:46;18.13;;;12.97;;
12603;SDS011;6367;52.508;13.284;2023-03-01T00:37:20;19.37;;;13.50;;
12603;SDS011;6367;52.508;13.284;2023-03-01T00:39:46;20.10;;;14.40;;
12603;SDS011;6367;52.508;13.284;2023-03-01T00:42:12;18.60;;;13.40;;
12603;SDS011;6367;52.508;13.284;2023-03-01T00:44:38;19.57;;;12.97;;
12603;SDS011;6367;52.508;13.284;2023-03-01T00:47:03;17.63;;;14.20;;
12603;SDS011;6367;52.508;13.284;2023-03-01T00:49:32;21.60;;;13.43;;
12603;SDS011;6367;52.508;13.284;2023-03-01T00:51:57;16.93;;;12.30;;
12603;SDS011;6367;52.508;13.284;2023-03-01T00:54:23;18.53;;;14.70;;
12603;SDS011;6367;52.508;13.284;2023-03-01T00:56:49;20.23;;;13.00;;
12603;SDS011;6367;52.508;13.284;2023-03-01T00:59:14;18.50;;;12.57;;
12603;SDS011;6367;52.508;13.284;2023-03-01T01:01:40;17.87;;;13.03;;
12603;SDS011;6367;52.508;13.284;2023-03-01T01:04:10;16.10;;;12.60;;
12603;SDS011;6367;52.508;13.284;2023-03-01T01:06:38;19.67;;;13.90;;
12603;SDS011;6367;52.508;13.284;2023-03-01T01:09:08;18.53;;;13.67;;
12603;SDS011;6367;52.508;13.284;2023-03-01T01:11:42;19.10;;;13.33;;
12603;SDS011;6367;52.508;13.284;2023-03-01T01:14:13;21.10;;;14.40;;
12603;SDS011;6367;52.508;13.284;2023-03-01T01:16:39;19.53;;;13.40;;
12603;SDS011;6367;52.508;13.284;2023-03-01T01:19:05;19.10;;;14.00;;
12603;SDS011;6367;52.508;13.284;2023-03-01T01:21:31;17.97;;;12.63;;
12603;SDS011;6367;52.508;13.284;2023-03-01T01:23:56;17.23;;;13.60;;
12603;SDS011;6367;52.508;13.284;2023-03-01T01:26:26;16.63;;;14.00;;
12603;SDS011;6367;52.508;13.284;2023-03-01T01:28:54;17.70;;;13.43;;
12603;SDS011;6367;52.508;13.284;2023-03-01T01:31:20;19.23;;;14.10;;
12603;SDS011;6367;52.508;13.284;2023-03-01T01:33:48;17.37;;;13.07;;
12603;SDS011;6367;52.508;13.284;2023-03-01T01:36:14;18.27;;;14.80;;
12603;SDS011;6367;52.508;13.284;2023-03-01T01:38:41;18.30;;;14.37;;
12603;SDS011;6367;52.508;13.284;2023-03-01T01:41:07;17.73;;;12.67;;
12603;SDS011;6367;52.508;13.284;2023-03-01T01:43:46;17.10;;;13.50;;
12603;SDS011;6367;52.508;13.284;2023-03-01T01:48:46;20.50;;;13.63;;
12603;SDS011;6367;52.508;13.284;2023-03-01T01:51:22;18.70;;;14.40;;
12603;SDS011;6367;52.508;13.284;2023-03-01T01:53:53;18.27;;;12.80;;
12603;SDS011;6367;52.508;13.284;2023-03-01T01:56:23;22.20;;;12.80;;
12603;SDS011;6367;52.508;13.284;2023-03-01T01:58:51;18.13;;;13.73;;
12603;SDS011;6367;52.508;13.284;2023-03-01T02:01:18;19.00;;;13.80;;
12603;SDS011;6367;52.508;13.284;2023-03-01T02:03:44;20.23;;;14.93;;
12603;SDS011;6367;52.508;13.284;2023-03-01T02:08:57;17.73;;;13.97;;
12603;SDS011;6367;52.508;13.284;2023-03-01T02:11:27;19.53;;;14.07;;
12603;SDS011;6367;52.508;13.284;2023-03-01T02:13:55;15.83;;;13.27;;
12603;SDS011;6367;52.508;13.284;2023-03-01T02:16:21;17.73;;;13.53;;
12603;SDS011;6367;52.508;13.284;2023-03-01T02:18:47;18.47;;;13.83;;
12603;SDS011;6367;52.508;13.284;2023-03-01T02:21:19;18.03;;;14.30;;
12603;SDS011;6367;52.508;13.284;2023-03-01T02:24:10;23.17;;;15.07;;
12603;SDS011;6367;52.508;13.284;2023-03-01T02:26:47;17.80;;;14.47;;
12603;SDS011;6367;52.508;13.284;2023-03-01T02:29:20;19.10;;;13.83;;
12603;SDS011;6367;52.508;13.284;2023-03-01T02:31:47;19.17;;;13.90;;
12603;SDS011;6367;52.508;13.284;2023-03-01T02:34:17;17.90;;;13.10;;
12603;SDS011;6367;52.508;13.284;2023-03-01T02:39:13;18.90;;;14.30;;
12603;SDS011;6367;52.508;13.284;2023-03-01T02:41:43;18.53;;;12.60;;
12603;SDS011;6367;52.508;13.284;2023-03-01T02:44:14;14.73;;;12.50;;
12603;SDS011;6367;52.508;13.284;2023-03-01T02:46:45;17.20;;;12.73;;
12603;SDS011;6367;52.508;13.284;2023-03-01T02:51:52;15.17;;;11.30;;
12603;SDS011;6367;52.508;13.284;2023-03-01T02:54:36;15.73;;;12.40;;
12603;SDS011;6367;52.508;13.284;2023-03-01T02:57:11;18.10;;;13.50;;
12603;SDS011;6367;52.508;13.284;2023-03-01T02:59:37;18.40;;;12.77;;
12603;SDS011;6367;52.508;13.284;2023-03-01T03:02:29;17.50;;;13.63;;
12603;SDS011;6367;52.508;13.284;2023-03-01T03:05:03;18.60;;;13.63;;
12603;SDS011;6367;52.508;13.284;2023-03-01T03:07:31;21.37;;;13.83;;
12603;SDS011;6367;52.508;13.284;2023-03-01T03:09:58;17.10;;;13.23;;
12603;SDS011;6367;52.508;13.284;2023-03-01T03:12:24;15.07;;;12.27;;
12603;SDS011;6367;52.508;13.284;2023-03-01T03:14:50;20.70;;;13.37;;
12603;SDS011;6367;52.508;13.284;2023-03-01T03:17:15;15.13;;;11.90;;
12603;SDS011;6367;52.508;13.284;2023-03-01T03:19:41;18.83;;;12.93;;
12603;SDS011;6367;52.508;13.284;2023-03-01T03:22:11;16.90;;;13.50;;
12603;SDS011;6367;52.508;13.284;2023-03-01T03:24:37;17.57;;;13.07;;
12603;SDS011;6367;52.508;13.284;2023-03-01T03:27:03;17.97;;;13.13;;
12603;SDS011;6367;52.508;13.284;2023-03-01T03:29:30;17.00;;;12.60;;
12603;SDS011;6367;52.508;13.284;2023-03-01T03:31:56;18.23;;;12.40;;
12603;SDS011;6367;52.508;13.284;2023-03-01T03:34:21;18.07;;;12.80;;
12603;SDS011;6367;52.508;13.284;2023-03-01T03:36:48;21.93;;;13.63;;
12603;SDS011;6367;52.508;13.284;2023-03-01T03:39:25;14.90;;;11.47;;
12603;SDS011;6367;52.508;13.284;2023-03-01T03:41:52;21.17;;;12.87;;
12603;SDS011;6367;52.508;13.284;2023-03-01T03:44:18;15.90;;;11.93;;
12603;SDS011;6367;52.508;13.284;2023-03-01T03:46:44;18.53;;;11.97;;
12603;SDS011;6367;52.508;13.284;2023-03-01T03:49:10;17.27;;;12.30;;
12603;SDS011;6367;52.508;13.284;2023-03-01T03:51:36;16.13;;;11.97;;
12603;SDS011;6367;52.508;13.284;2023-03-01T03:54:01;18.13;;;12.63;;
12603;SDS011;6367;52.508;13.284;2023-03-01T03:56:27;18.80;;;13.30;;
12603;SDS011;6367;52.508;13.284;2023-03-01T03:58:53;18.07;;;12.50;;
12603;SDS011;6367;52.508;13.284;2023-03-01T04:01:18;16.07;;;12.13;;
12603;SDS011;6367;52.508;13.284;2023-03-01T04:03:45;15.33;;;10.80;;
12603;SDS011;6367;52.508;13.284;2023-03-01T04:06:12;13.13;;;11.10;;
12603;SDS011;6367;52.508;13.284;2023-03-01T04:08:38;17.70;;;11.60;;
12603;SDS011;6367;52.508;13.284;2023-03-01T04:11:04;15.17;;;10.77;;
12603;SDS011;6367;52.508;13.284;2023-03-01T04:13:50;17.33;;;10.60;;
12603;SDS011;6367;52.508;13.284;2023-03-01T04:16:17;14.23;;;10.93;;
12603;SDS011;6367;52.508;13.284;2023-03-01T04:18:43;16.13;;;12.30;;
12603;SDS011;6367;52.508;13.284;2023-03-01T04:21:12;15.10;;;11.60;;
12603;SDS011;6367;52.508;13.284;2023-03-01T04:23:38;17.33;;;12.67;;
12603;SDS011;6367;52.508;13.284;2023-03-01T04:26:05;16.40;;;11.33;;
12603;SDS011;6367;52.508;13.284;2023-03-01T04:28:32;17.00;;;12.23;;
12603;SDS011;6367;52.508;13.284;2023-03-01T04:31:05;17.40;;;13.23;;
12603;SDS011;6367;52.508;13.284;2023-03-01T04:33:41;19.90;;;12.27;;
12603;SDS011;6367;52.508;13.284;2023-03-01T04:36:11;20.00;;;11.87;;
12603;SDS011;6367;52.508;13.284;2023-03-01T04:38:38;16.97;;;11.70;;
12603;SDS011;6367;52.508;13.284;2023-03-01T04:41:05;14.97;;;11.37;;
12603;SDS011;6367;52.508;13.284;2023-03-01T04:43:32;17.43;;;11.70;;
12603;SDS011;6367;52.508;13.284;2023-03-01T04:46:02;17.93;;;12.53;;
12603;SDS011;6367;52.508;13.284;2023-03-01T04:48:31;17.17;;;12.73;;
12603;SDS011;6367;52.508;13.284;2023-03-01T04:50:58;16.23;;;12.50;;
12603;SDS011;6367;52.508;13.284;2023-03-01T04:53:24;17.53;;;12.80;;
12603;SDS011;6367;52.508;13.284;2023-03-01T04:55:50;16.37;;;11.70;;
12603;SDS011;6367;52.508;13.284;2023-03-01T04:58:16;16.10;;;11.93;;
12603;SDS011;6367;52.508;13.284;2023-03-01T05:00:42;16.70;;;11.97;;
12603;SDS011;6367;52.508;13.284;2023-03-01T05:03:08;15.67;;;12.57;;
12603;SDS011;6367;52.508;13.284;2023-03-01T05:05:34;17.77;;;12.60;;
12603;SDS011;6367;52.508;13.284;2023-03-01T05:08:04;16.47;;;11.80;;
12603;SDS011;6367;52.508;13.284;2023-03-01T05:10:32;18.80;;;13.07;;
12603;SDS011;6367;52.508;13.284;2023-03-01T05:13:00;17.37;;;12.63;;
12603;SDS011;6367;52.508;13.284;2023-03-01T05:15:28;14.43;;;11.23;;
12603;SDS011;6367;52.508;13.284;2023-03-01T05:17:56;17.63;;;12.63;;
12603;SDS011;6367;52.508;13.284;2023-03-01T05:20:26;16.30;;;12.23;;
12603;SDS011;6367;52.508;13.284;2023-03-01T05:22:58;15.97;;;11.47;;
12603;SDS011;6367;52.508;13.284;2023-03-01T05:25:24;21.53;;;12.63;;
12603;SDS011;6367;52.508;13.284;2023-03-01T05:27:51;16.23;;;11.23;;
12603;SDS011;6367;52.508;13.284;2023-03-01T05:30:17;15.90;;;12.13;;
12603;SDS011;6367;52.508;13.284;2023-03-01T05:32:44;15.77;;;11.90;;
12603;SDS011;6367;52.508;13.284;2023-03-01T05:35:13;19.13;;;12.23;;
12603;SDS011;6367;52.508;13.284;2023-03-01T05:37:44;13.33;;;11.67;;
12603;SDS011;6367;52.508;13.284;2023-03-01T05:40:13;19.10;;;12.37;;
12603;SDS011;6367;52.508;13.284;2023-03-01T05:42:48;19.23;;;13.10;;
12603;SDS011;6367;52.508;13.284;2023-03-01T05:45:17;18.23;;;13.43;;
12603;SDS011;6367;52.508;13.284;2023-03-01T05:47:47;20.80;;;13.07;;
12603;SDS011;6367;52.508;13.284;2023-03-01T05:50:24;19.70;;;12.70;;
12603;SDS011;6367;52.508;13.284;2023-03-01T05:52:56;22.13;;;12.90;;
12603;SDS011;6367;52.508;13.284;2023-03-01T05:55:23;21.20;;;13.53;;
12603;SDS011;6367;52.508;13.284;2023-03-01T05:57:49;17.17;;;11.53;;
12603;SDS011;6367;52.508;13.284;2023-03-01T06:00:17;17.47;;;12.30;;
12603;SDS011;6367;52.508;13.284;2023-03-01T06:02:47;17.70;;;13.03;;
12603;SDS011;6367;52.508;13.284;2023-03-01T06:05:12;21.40;;;12.23;;
12603;SDS011;6367;52.508;13.284;2023-03-01T06:07:38;19.50;;;12.02;;
12603;SDS011;6367;52.508;13.284;2023-03-01T06:10:05;19.57;;;12.73;;
12603;SDS011;6367;52.508;13.284;2023-03-01T06:12:32;17.17;;;11.67;;
12603;SDS011;6367;52.508;13.284;2023-03-01T06:14:59;18.20;;;12.73;;
12603;SDS011;6367;52.508;13.284;2023-03-01T06:17:25;19.58;;;13.18;;
12603;SDS011;6367;52.508;13.284;2023-03-01T06:19:54;16.53;;;12.30;;
12603;SDS011;6367;52.508;13.284;2023-03-01T06:22:19;16.40;;;11.63;;
12603;SDS011;6367;52.508;13.284;2023-03-01T06:24:45;17.07;;;12.43;;
12603;SDS011;6367;52.508;13.284;2023-03-01T06:27:11;15.60;;;11.30;;
12603;SDS011;6367;52.508;13.284;2023-03-01T06:29:36;18.43;;;12.87;;
12603;SDS011;6367;52.508;13.284;2023-03-01T06:32:02;17.90;;;11.93;;
12603;SDS011;6367;52.508;13.284;2023-03-01T06:34:28;15.60;;;11.80;;
12603;SDS011;6367;52.508;13.284;2023-03-01T06:36:54;16.37;;;11.87;;
12603;SDS011;6367;52.508;13.284;2023-03-01T06:39:20;15.90;;;11.73;;
12603;SDS011;6367;52.508;13.284;2023-03-01T06:41:45;25.30;;;12.60;;
12603;SDS011;6367;52.508;13.284;2023-03-01T06:44:11;16.13;;;11.83;;
12603;SDS011;6367;52.508;13.284;2023-03-01T06:46:37;19.90;;;11.60;;
12603;SDS011;6367;52.508;13.284;2023-03-01T06:49:04;20.63;;;12.60;;
12603;SDS011;6367;52.508;13.284;2023-03-01T06:51:34;17.23;;;12.13;;
12603;SDS011;6367;52.508;13.284;2023-03-01T06:54:00;22.07;;;13.10;;
12603;SDS011;6367;52.508;13.284;2023-03-01T06:56:26;20.80;;;13.30;;
12603;SDS011;6367;52.508;13.284;2023-03-01T06:58:51;19.20;;;11.60;;
12603;SDS011;6367;52.508;13.284;2023-03-01T07:01:17;15.63;;;12.00;;
12603;SDS011;6367;52.508;13.284;2023-03-01T07:03:43;18.60;;;12.80;;
12603;SDS011;6367;52.508;13.284;2023-03-01T07:06:09;18.07;;;12.20;;
12603;SDS011;6367;52.508;13.284;2023-03-01T07:08:35;15.73;;;11.80;;
12603;SDS011;6367;52.508;13.284;2023-03-01T07:11:01;17.33;;;12.43;;
12603;SDS011;6367;52.508;13.284;2023-03-01T07:13:28;13.10;;;11.00;;
12603;SDS011;6367;52.508;13.284;2023-03-01T07:15:54;15.13;;;11.57;;
12603;SDS011;6367;52.508;13.284;2023-03-01T07:18:19;20.10;;;14.33;;
12603;SDS011;6367;52.508;13.284;2023-03-01T07:20:45;20.77;;;14.87;;
12603;SDS011;6367;52.508;13.284;2023-03-01T07:23:11;16.23;;;13.10;;
12603;SDS011;6367;52.508;13.284;2023-03-01T07:25:36;24.40;;;14.40;;
12603;SDS011;6367;52.508;13.284;2023-03-01T07:28:02;21.43;;;14.33;;
12603;SDS011;6367;52.508;13.284;2023-03-01T07:30:28;17.80;;;12.60;;
12603;SDS011;6367;52.508;13.284;2023-03-01T07:32:54;17.07;;;11.93;;
12603;SDS011;6367;52.508;13.284;2023-03-01T07:35:21;20.87;;;13.73;;
12603;SDS011;6367;52.508;13.284;2023-03-01T07:37:48;18.27;;;13.10;;
12603;SDS011;6367;52.508;13.284;2023-03-01T07:40:13;16.97;;;11.97;;
12603;SDS011;6367;52.508;13.284;2023-03-01T07:42:39;20.57;;;13.80;;
12603;SDS011;6367;52.508;13.284;2023-03-01T07:45:05;17.17;;;10.97;;
12603;SDS011;6367;52.508;13.284;2023-03-01T07:47:31;18.53;;;12.93;;
12603;SDS011;6367;52.508;13.284;2023-03-01T07:49:57;15.50;;;12.17;;
12603;SDS011;6367;52.508;13.284;2023-03-01T07:52:23;20.00;;;12.67;;
12603;SDS011;6367;52.508;13.284;2023-03-01T07:54:49;17.80;;;12.17;;
12603;SDS011;6367;52.508;13.284;2023-03-01T07:57:15;18.90;;;11.80;;
12603;SDS011;6367;52.508;13.284;2023-03-01T07:59:40;16.33;;;12.53;;
12603;SDS011;6367;52.508;13.284;2023-03-01T08:02:06;15.20;;;11.50;;
12603;SDS011;6367;52.508;13.284;2023-03-01T08:04:33;18.80;;;11.87;;
12603;SDS011;6367;52.508;13.284;2023-03-01T08:06:58;15.67;;;11.70;;
12603;SDS011;6367;52.508;13.284;2023-03-01T08:09:24;15.90;;;12.60;;
12603;SDS011;6367;52.508;13.284;2023-03-01T08:11:50;15.23;;;12.17;;
12603;SDS011;6367;52.508;13.284;2023-03-01T08:14:16;15.80;;;13.03;;
12603;SDS011;6367;52.508;13.284;2023-03-01T08:16:42;16.13;;;11.40;;
12603;SDS011;6367;52.508;13.284;2023-03-01T08:19:08;19.60;;;12.00;;
12603;SDS011;6367;52.508;13.284;2023-03-01T08:21:35;16.90;;;12.00;;
12603;SDS011;6367;52.508;13.284;2023-03-01T08:24:05;18.80;;;12.87;;
12603;SDS011;6367;52.508;13.284;2023-03-01T08:26:31;21.07;;;13.47;;
12603;SDS011;6367;52.508;13.284;2023-03-01T08:28:58;18.40;;;11.40;;
12603;SDS011;6367;52.508;13.284;2023-03-01T08:31:29;20.60;;;10.70;;
12603;SDS011;6367;52.508;13.284;2023-03-01T08:34:01;10.30;;;8.00;;
12603;SDS011;6367;52.508;13.284;2023-03-01T08:36:30;13.00;;;10.00;;
12603;SDS011;6367;52.508;13.284;2023-03-01T08:39:04;12.33;;;8.13;;
12603;SDS011;6367;52.508;13.284;2023-03-01T08:41:31;10.33;;;8.33;;
12603;SDS011;6367;52.508;13.284;2023-03-01T08:43:57;12.90;;;8.27;;
12603;SDS011;6367;52.508;13.284;2023-03-01T08:46:34;11.37;;;8.27;;
12603;SDS011;6367;52.508;13.284;2023-03-01T08:49:03;17.23;;;9.03;;
12603;SDS011;6367;52.508;13.284;2023-03-01T08:51:33;9.90;;;7.50;;
12603;SDS011;6367;52.508;13.284;2023-03-01T08:54:05;13.10;;;8.37;;
12603;SDS011;6367;52.508;13.284;2023-03-01T08:56:35;11.33;;;8.47;;
12603;SDS011;6367;52.508;13.284;2023-03-01T08:59:00;7.93;;;7.13;;
12603;SDS011;6367;52.508;13.284;2023-03-01T09:01:26;12.17;;;5.70;;
12603;SDS011;6367;52.508;13.284;2023-03-01T09:03:52;9.27;;;5.57;;
12603;SDS011;6367;52.508;13.284;2023-03-01T09:06:17;11.40;;;5.90;;
12603;SDS011;6367;52.508;13.284;2023-03-01T09:08:47;6.70;;;5.47;;
12603;SDS011;6367;52.508;13.284;2023-03-01T09:11:14;9.57;;;5.37;;
12603;SDS011;6367;52.508;13.284;2023-03-01T09:13:44;5.03;;;4.53;;
12603;SDS011;6367;52.508;13.284;2023-03-01T09:16:12;8.20;;;5.00;;
12603;SDS011;6367;52.508;13.284;2023-03-01T09:18:39;8.30;;;5.13;;
12603;SDS011;6367;52.508;13.284;2023-03-01T09:21:06;9.53;;;4.70;;
12603;SDS011;6367;52.508;13.284;2023-03-01T09:23:34;5.77;;;4.70;;
12603;SDS011;6367;52.508;13.284;2023-03-01T09:26:02;5.17;;;4.47;;
12603;SDS011;6367;52.508;13.284;2023-03-01T09:28:28;6.07;;;4.50;;
12603;SDS011;6367;52.508;13.284;2023-03-01T09:30:53;7.50;;;4.73;;
12603;SDS011;6367;52.508;13.284;2023-03-01T09:33:24;8.10;;;4.27;;
12603;SDS011;6367;52.508;13.284;2023-03-01T09:35:55;8.17;;;5.00;;
12603;SDS011;6367;52.508;13.284;2023-03-01T09:38:25;9.27;;;5.30;;
12603;SDS011;6367;52.508;13.284;2023-03-01T09:40:50;5.20;;;4.70;;
12603;SDS011;6367;52.508;13.284;2023-03-01T09:46:11;6.17;;;4.40;;
12603;SDS011;6367;52.508;13.284;2023-03-01T09:48:43;7.80;;;5.10;;
12603;SDS011;6367;52.508;13.284;2023-03-01T09:51:25;5.87;;;5.27;;
12603;SDS011;6367;52.508;13.284;2023-03-01T09:53:56;5.87;;;4.20;;
12603;SDS011;6367;52.508;13.284;2023-03-01T09:58:53;9.03;;;3.47;;
12603;SDS011;6367;52.508;13.284;2023-03-01T10:04:41;5.67;;;4.00;;
12603;SDS011;6367;52.508;13.284;2023-03-01T10:09:49;4.83;;;3.90;;
12603;SDS011;6367;52.508;13.284;2023-03-01T10:12:16;6.33;;;4.87;;
12603;SDS011;6367;52.508;13.284;2023-03-01T10:14:48;7.57;;;4.47;;
12603;SDS011;6367;52.508;13.284;2023-03-01T10:20:15;6.40;;;4.57;;
12603;SDS011;6367;52.508;13.284;2023-03-01T10:22:44;6.60;;;4.13;;
12603;SDS011;6367;52.508;13.284;2023-03-01T10:25:15;4.20;;;3.80;;
12603;SDS011;6367;52.508;13.284;2023-03-01T10:27:52;7.40;;;4.10;;
12603;SDS011;6367;52.508;13.284;2023-03-01T10:30:41;3.80;;;3.40;;
12603;SDS011;6367;52.508;13.284;2023-03-01T10:35:51;6.80;;;3.97;;
12603;SDS011;6367;52.508;13.284;2023-03-01T10:38:17;5.83;;;3.60;;
12603;SDS011;6367;52.508;13.284;2023-03-01T10:40:58;4.50;;;3.93;;
12603;SDS011;6367;52.508;13.284;2023-03-01T10:43:42;4.73;;;3.20;;
12603;SDS011;6367;52.508;13.284;2023-03-01T10:49:14;4.90;;;3.70;;
12603;SDS011;6367;52.508;13.284;2023-03-01T10:51:46;5.73;;;4.10;;
12603;SDS011;6367;52.508;13.284;2023-03-01T10:54:16;3.43;;;3.13;;
12603;SDS011;6367;52.508;13.284;2023-03-01T10:56:52;5.87;;;3.73;;
12603;SDS011;6367;52.508;13.284;2023-03-01T11:07:50;4.43;;;3.90;;
12603;SDS011;6367;52.508;13.284;2023-03-01T11:10:17;6.60;;;4.20;;
12603;SDS011;6367;52.508;13.284;2023-03-01T11:12:47;6.47;;;4.47;;
12603;SDS011;6367;52.508;13.284;2023-03-01T11:15:20;7.33;;;4.43;;
12603;SDS011;6367;52.508;13.284;2023-03-01T11:17:54;4.57;;;4.17;;
12603;SDS011;6367;52.508;13.284;2023-03-01T11:22:55;5.50;;;4.30;;
12603;SDS011;6367;52.508;13.284;2023-03-01T11:25:30;5.00;;;4.50;;
12603;SDS011;6367;52.508;13.284;2023-03-01T11:28:06;4.50;;;4.10;;
12603;SDS011;6367;52.508;13.284;2023-03-01T11:30:41;5.30;;;4.60;;
12603;SDS011;6367;52.508;13.284;2023-03-01T11:35:41;4.70;;;4.20;;
12603;SDS011;6367;52.508;13.284;2023-03-01T11:40:59;5.00;;;4.17;;
12603;SDS011;6367;52.508;13.284;2023-03-01T11:52:17;6.30;;;4.23;;
12603;SDS011;6367;52.508;13.284;2023-03-01T12:22:48;5.60;;;3.70;;
12603;SDS011;6367;52.508;13.284;2023-03-01T12:25:21;5.53;;;4.20;;
12603;SDS011;6367;52.508;13.284;2023-03-01T12:45:48;4.97;;;4.20;;
12603;SDS011;6367;52.508;13.284;2023-03-01T12:48:40;5.53;;;4.37;;
12603;SDS011;6367;52.508;13.284;2023-03-01T12:51:26;5.27;;;4.00;;
12603;SDS011;6367;52.508;13.284;2023-03-01T12:53:55;4.60;;;3.27;;
12603;SDS011;6367;52.508;13.284;2023-03-01T12:56:24;5.50;;;3.37;;
12603;SDS011;6367;52.508;13.284;2023-03-01T13:17:48;3.87;;;3.30;;
12603;SDS011;6367;52.508;13.284;2023-03-01T13:20:16;3.80;;;3.37;;
12603;SDS011;6367;52.508;13.284;2023-03-01T13:22:43;3.93;;;3.27;;
12603;SDS011;6367;52.508;13.284;2023-03-01T13:25:13;2.97;;;2.67;;
12603;SDS011;6367;52.508;13.284;2023-03-01T13:27:43;3.60;;;3.30;;
12603;SDS011;6367;52.508;13.284;2023-03-01T13:33:56;3.50;;;3.20;;
12603;SDS011;6367;52.508;13.284;2023-03-01T13:35:59;3.17;;;2.53;;
12603;SDS011;6367;52.508;13.284;2023-03-01T13:38:47;3.23;;;2.93;;
12603;SDS011;6367;52.508;13.284;2023-03-01T13:49:47;7.13;;;2.63;;
12603;SDS011;6367;52.508;13.284;2023-03-01T13:54:57;3.40;;;3.10;;
12603;SDS011;6367;52.508;13.284;2023-03-01T13:57:25;4.10;;;2.67;;
12603;SDS011;6367;52.508;13.284;2023-03-01T13:59:57;2.50;;;2.30;;
12603;SDS011;6367;52.508;13.284;2023-03-01T14:02:23;4.33;;;3.00;;
12603;SDS011;6367;52.508;13.284;2023-03-01T14:04:59;2.73;;;2.50;;
12603;SDS011;6367;52.508;13.284;2023-03-01T14:07:27;3.30;;;3.00;;
12603;SDS011;6367;52.508;13.284;2023-03-01T14:09:56;3.00;;;2.70;;
12603;SDS011;6367;52.508;13.284;2023-03-01T14:15:22;3.90;;;2.80;;
12603;SDS011;6367;52.508;13.284;2023-03-01T14:20:43;5.47;;;2.60;;
12603;SDS011;6367;52.508;13.284;2023-03-01T14:23:17;3.13;;;2.30;;
12603;SDS011;6367;52.508;13.284;2023-03-01T14:25:53;2.00;;;1.80;;
12603;SDS011;6367;52.508;13.284;2023-03-01T14:28:23;2.37;;;2.17;;
12603;SDS011;6367;52.508;13.284;2023-03-01T14:30:54;2.67;;;2.47;;
12603;SDS011;6367;52.508;13.284;2023-03-01T14:38:22;5.23;;;3.37;;
12603;SDS011;6367;52.508;13.284;2023-03-01T14:40:55;3.43;;;2.83;;
12603;SDS011;6367;52.508;13.284;2023-03-01T14:43:24;3.27;;;2.97;;
12603;SDS011;6367;52.508;13.284;2023-03-01T14:45:53;5.33;;;3.00;;
12603;SDS011;6367;52.508;13.284;2023-03-01T14:48:18;2.80;;;2.13;;
12603;SDS011;6367;52.508;13.284;2023-03-01T14:50:45;3.50;;;2.30;;
12603;SDS011;6367;52.508;13.284;2023-03-01T14:53:23;2.13;;;1.93;;
12603;SDS011;6367;52.508;13.284;2023-03-01T14:55:52;6.30;;;2.13;;
12603;SDS011;6367;52.508;13.284;2023-03-01T14:58:25;2.77;;;1.90;;
12603;SDS011;6367;52.508;13.284;2023-03-01T15:00:55;2.00;;;1.80;;
12603;SDS011;6367;52.508;13.284;2023-03-01T15:03:25;4.70;;;2.73;;
12603;SDS011;6367;52.508;13.284;2023-03-01T15:06:14;2.03;;;1.83;;
12603;SDS011;6367;52.508;13.284;2023-03-01T15:08:47;2.97;;;2.67;;
12603;SDS011;6367;52.508;13.284;2023-03-01T15:11:21;3.00;;;2.20;;
12603;SDS011;6367;52.508;13.284;2023-03-01T15:13:49;2.43;;;2.13;;
12603;SDS011;6367;52.508;13.284;2023-03-01T15:16:17;2.37;;;1.80;;
12603;SDS011;6367;52.508;13.284;2023-03-01T15:18:51;2.80;;;1.73;;
12603;SDS011;6367;52.508;13.284;2023-03-01T15:21:22;3.07;;;2.20;;
12603;SDS011;6367;52.508;13.284;2023-03-01T15:23:55;2.60;;;2.20;;
12603;SDS011;6367;52.508;13.284;2023-03-01T15:28:54;3.20;;;2.13;;
12603;SDS011;6367;52.508;13.284;2023-03-01T15:31:28;4.60;;;1.90;;
12603;SDS011;6367;52.508;13.284;2023-03-01T15:34:07;1.50;;;1.40;;
12603;SDS011;6367;52.508;13.284;2023-03-01T15:36:52;1.83;;;1.50;;
12603;SDS011;6367;52.508;13.284;2023-03-01T15:41:58;2.60;;;2.00;;
12603;SDS011;6367;52.508;13.284;2023-03-01T15:44:28;2.10;;;1.70;;
12603;SDS011;6367;52.508;13.284;2023-03-01T15:46:55;2.13;;;1.70;;
12603;SDS011;6367;52.508;13.284;2023-03-01T15:49:26;2.60;;;1.87;;
12603;SDS011;6367;52.508;13.284;2023-03-01T15:52:13;2.73;;;1.70;;
12603;SDS011;6367;52.508;13.284;2023-03-01T15:54:54;2.97;;;2.17;;
12603;SDS011;6367;52.508;13.284;2023-03-01T15:57:25;2.33;;;1.77;;
12603;SDS011;6367;52.508;13.284;2023-03-01T15:59:50;2.43;;;1.97;;
12603;SDS011;6367;52.508;13.284;2023-03-01T16:02:16;3.70;;;2.13;;
12603;SDS011;6367;52.508;13.284;2023-03-01T16:04:42;2.33;;;1.90;;
12603;SDS011;6367;52.508;13.284;2023-03-01T16:07:08;2.53;;;1.83;;
12603;SDS011;6367;52.508;13.284;2023-03-01T16:09:34;4.00;;;2.40;;
12603;SDS011;6367;52.508;13.284;2023-03-01T16:12:01;3.03;;;2.20;;
12603;SDS011;6367;52.508;13.284;2023-03-01T16:14:27;3.13;;;2.10;;
12603;SDS011;6367;52.508;13.284;2023-03-01T16:16:52;3.33;;;2.13;;
12603;SDS011;6367;52.508;13.284;2023-03-01T16:19:19;3.87;;;2.50;;
12603;SDS011;6367;52.508;13.284;2023-03-01T16:21:45;4.23;;;2.73;;
12603;SDS011;6367;52.508;13.284;2023-03-01T16:24:12;3.70;;;2.63;;
12603;SDS011;6367;52.508;13.284;2023-03-01T16:26:38;4.40;;;2.73;;
12603;SDS011;6367;52.508;13.284;2023-03-01T16:29:04;4.93;;;2.53;;
12603;SDS011;6367;52.508;13.284;2023-03-01T16:31:30;3.20;;;2.77;;
12603;SDS011;6367;52.508;13.284;2023-03-01T16:33:57;2.90;;;2.60;;
12603;SDS011;6367;52.508;13.284;2023-03-01T16:36:25;3.37;;;2.47;;
12603;SDS011;6367;52.508;13.284;2023-03-01T16:38:53;2.97;;;2.30;;
12603;SDS011;6367;52.508;13.284;2023-03-01T16:41:20;2.80;;;2.50;;
12603;SDS011;6367;52.508;13.284;2023-03-01T16:43:47;3.83;;;3.03;;
12603;SDS011;6367;52.508;13.284;2023-03-01T16:46:14;3.40;;;2.33;;
12603;SDS011;6367;52.508;13.284;2023-03-01T16:48:42;5.47;;;4.37;;
12603;SDS011;6367;52.508;13.284;2023-03-01T16:51:09;2.40;;;2.20;;
12603;SDS011;6367;52.508;13.284;2023-03-01T16:53:35;2.20;;;2.00;;
12603;SDS011;6367;52.508;13.284;2023-03-01T16:56:03;3.47;;;2.07;;
12603;SDS011;6367;52.508;13.284;2023-03-01T16:58:31;3.10;;;1.63;;
12603;SDS011;6367;52.508;13.284;2023-03-01T17:01:01;3.53;;;2.60;;
12603;SDS011;6367;52.508;13.284;2023-03-01T17:03:51;2.30;;;2.10;;
12603;SDS011;6367;52.508;13.284;2023-03-01T17:06:18;3.97;;;2.90;;
12603;SDS011;6367;52.508;13.284;2023-03-01T17:08:45;4.40;;;2.13;;
12603;SDS011;6367;52.508;13.284;2023-03-01T17:11:13;4.10;;;2.40;;
12603;SDS011;6367;52.508;13.284;2023-03-01T17:13:43;3.27;;;2.50;;